Time;durP1;ratioP1;P1;durP2;ratioP2;P2;SDS_P1;SDS_P2;PMS_P1;PMS_P2;Temp;Humidity;BMP_temperature;BMP_pressure;BME280_temperature;BME280_humidity;BME280_pressure;Samples;Min_cycle;Max_cycle;Signal;HPM_P1;HPM_P2
2022/03/22 00:00:12;;;;;;;54.53;26.38;;;;;;;2.75;nan;102462.41;5056373;28;20036;-67
2022/03/22 00:02:38;;;;;;;56.00;25.00;;;;;;;2.64;nan;102468.50;5060911;28;20052;-67
2022/03/22 00:05:04;;;;;;;52.55;24.40;;;;;;;2.65;nan;102466.72;5062805;28;20041;-67
2022/03/22 00:07:30;;;;;;;52.05;22.70;;;;;;;2.65;nan;102471.91;5048393;28;20102;-66
2022/03/22 00:09:56;;;;;;;45.22;21.35;;;;;;;2.54;nan;102457.97;5048550;28;20043;-67
2022/03/22 00:12:21;;;;;;;46.58;22.30;;;;;;;2.61;nan;102467.88;5057626;28;20032;-67
2022/03/22 00:14:47;;;;;;;53.13;24.48;;;;;;;2.62;nan;102467.78;5058181;28;20040;-67
2022/03/22 00:17:12;;;;;;;48.55;23.85;;;;;;;2.58;nan;102463.75;5059464;28;20122;-67
2022/03/22 00:19:38;;;;;;;50.25;23.45;;;;;;;2.51;nan;102457.38;5070627;28;20128;-67
2022/03/22 00:22:04;;;;;;;55.35;25.55;;;;;;;2.54;nan;102463.19;5066469;28;20032;-67
2022/03/22 00:24:29;;;;;;;57.00;25.75;;;;;;;2.45;nan;102444.88;5066774;28;20544;-67
2022/03/22 00:26:55;;;;;;;49.00;23.33;;;;;;;2.44;nan;102451.88;5054827;28;20036;-66
2022/03/22 00:29:20;;;;;;;59.25;26.67;;;;;;;2.32;nan;102464.03;5049980;28;20398;-68
2022/03/22 00:31:45;;;;;;;56.35;24.92;;;;;;;2.27;nan;102462.72;5053902;28;20086;-68
2022/03/22 00:34:13;;;;;;;57.10;24.38;;;;;;;2.15;nan;102461.91;5052507;28;20672;-68
2022/03/22 00:36:39;;;;;;;48.50;24.75;;;;;;;2.10;nan;102467.47;5061649;28;20032;-68
2022/03/22 00:39:05;;;;;;;53.25;24.35;;;;;;;2.01;nan;102468.19;5064516;28;20032;-68
2022/03/22 00:41:31;;;;;;;49.58;24.77;;;;;;;1.99;nan;102464.88;5061383;28;20616;-68
2022/03/22 00:43:56;;;;;;;45.83;21.92;;;;;;;1.82;nan;102468.75;5063182;28;20071;-68
2022/03/22 00:46:22;;;;;;;44.90;21.42;;;;;;;1.72;nan;102472.97;5059970;28;20555;-68
2022/03/22 00:48:48;;;;;;;46.25;22.30;;;;;;;1.64;nan;102476.16;5057234;28;20544;-67
2022/03/22 00:51:14;;;;;;;48.50;21.83;;;;;;;1.50;nan;102473.75;5063898;28;20478;-68
2022/03/22 00:53:40;;;;;;;49.47;22.63;;;;;;;1.35;nan;102461.94;5062192;28;20024;-68
2022/03/22 00:56:06;;;;;;;49.92;22.27;;;;;;;1.32;nan;102462.97;5060179;28;20036;-68
2022/03/22 00:58:32;;;;;;;54.00;22.70;;;;;;;1.22;nan;102468.03;5066734;28;20039;-69
2022/03/22 01:00:57;;;;;;;47.33;22.35;;;;;;;1.08;nan;102444.84;5059276;28;20402;-68
2022/03/22 01:03:23;;;;;;;48.45;22.58;;;;;;;1.05;nan;102443.31;5056076;28;20028;-68
2022/03/22 01:05:51;;;;;;;53.30;22.63;;;;;;;1.05;nan;102463.22;5061034;28;20040;-68
2022/03/22 01:08:16;;;;;;;46.35;21.17;;;;;;;1.00;nan;102454.94;5064492;28;20024;-68
2022/03/22 01:10:45;;;;;;;44.80;21.88;;;;;;;0.94;nan;102451.03;5061987;28;20041;-68
2022/03/22 01:13:11;;;;;;;45.08;21.25;;;;;;;0.75;nan;102440.34;5054715;28;20063;-68
2022/03/22 01:15:37;;;;;;;40.80;21.30;;;;;;;0.73;nan;102448.22;5063710;28;20474;-68
2022/03/22 01:18:05;;;;;;;48.90;21.85;;;;;;;0.75;nan;102451.53;5066223;28;20086;-68
2022/03/22 01:20:33;;;;;;;42.40;20.00;;;;;;;0.75;nan;102450.72;5067485;28;20036;-68
2022/03/22 01:22:59;;;;;;;43.55;20.83;;;;;;;0.51;nan;102438.56;5074652;28;20048;-69
2022/03/22 01:25:27;;;;;;;44.20;20.50;;;;;;;0.59;nan;102449.19;5064713;28;20029;-68
2022/03/22 01:27:54;;;;;;;45.20;20.40;;;;;;;0.56;nan;102453.78;5061163;28;20123;-69
2022/03/22 01:30:22;;;;;;;45.25;20.17;;;;;;;0.46;nan;102432.88;5055649;28;20032;-67
2022/03/22 01:32:52;;;;;;;43.35;19.40;;;;;;;0.52;nan;102442.78;5061114;28;20779;-68
2022/03/22 01:35:18;;;;;;;39.45;18.98;;;;;;;0.37;nan;102415.38;5058339;28;20086;-67
2022/03/22 01:37:47;;;;;;;39.90;18.83;;;;;;;0.45;nan;102428.59;5062750;28;20147;-68
2022/03/22 01:40:14;;;;;;;38.28;18.23;;;;;;;0.49;nan;102435.22;5064462;28;20062;-67
2022/03/22 01:42:40;;;;;;;40.58;18.70;;;;;;;0.23;nan;102408.56;5068914;28;20391;-67
2022/03/22 01:45:07;;;;;;;40.35;18.17;;;;;;;0.46;nan;102439.81;5069795;28;20037;-68
2022/03/22 01:47:35;;;;;;;35.47;17.77;;;;;;;0.26;nan;102397.97;5064879;28;20052;-67
2022/03/22 01:50:01;;;;;;;39.58;18.40;;;;;;;0.45;nan;102428.59;5071868;28;20068;-68
2022/03/22 01:52:27;;;;;;;35.33;17.08;;;;;;;0.44;nan;102424.38;5071542;28;20390;-68
2022/03/22 01:54:55;;;;;;;37.50;17.80;;;;;;;0.49;nan;102435.22;5060742;28;20041;-67
2022/03/22 01:57:22;;;;;;;36.17;16.55;;;;;;;0.54;nan;102433.13;5067000;28;20062;-68
2022/03/22 01:59:48;;;;;;;36.92;17.60;;;;;;;0.56;nan;102428.69;5062787;28;20037;-67
2022/03/22 02:07:45;;;;;;;40.30;16.40;;;;;;;0.73;nan;102431.84;5065709;28;20119;-69
2022/03/22 02:10:11;;;;;;;40.80;17.25;;;;;;;0.68;nan;102418.38;5062877;28;20044;-67
2022/03/22 02:12:37;;;;;;;36.97;18.25;;;;;;;0.54;nan;102401.22;5053186;28;20040;-68
2022/03/22 02:15:03;;;;;;;41.40;18.17;;;;;;;0.78;nan;102432.31;5053742;28;20102;-66
2022/03/22 02:17:28;;;;;;;41.92;18.05;;;;;;;0.70;nan;102419.91;5064242;28;20032;-68
2022/03/22 02:19:55;;;;;;;40.70;19.83;;;;;;;0.68;nan;102419.19;5055123;28;20079;-68
2022/03/22 02:22:28;;;;;;;40.92;18.45;;;;;;;0.62;nan;102420.47;5060139;28;20043;-67
2022/03/22 02:24:54;;;;;;;41.28;19.10;;;;;;;0.62;nan;102417.03;5057257;28;20035;-68
2022/03/22 02:27:20;;;;;;;35.97;19.38;;;;;;;0.64;nan;102423.75;5068917;28;20108;-68
2022/03/22 02:29:45;;;;;;;40.78;18.88;;;;;;;0.58;nan;102415.63;5056970;28;20075;-68
2022/03/22 02:32:10;;;;;;;37.72;18.13;;;;;;;0.52;nan;102413.44;5060306;28;20503;-67
2022/03/22 02:34:37;;;;;;;36.10;17.23;;;;;;;0.53;nan;102417.72;5062505;28;20530;-67
2022/03/22 02:37:04;;;;;;;36.20;17.63;;;;;;;0.34;nan;102379.31;5056886;28;20032;-67
2022/03/22 02:39:31;;;;;;;39.63;18.27;;;;;;;0.51;nan;102420.41;5069692;28;20462;-67
2022/03/22 02:41:57;;;;;;;33.70;17.70;;;;;;;0.53;nan;102426.31;5058459;28;20436;-67
2022/03/22 02:44:23;;;;;;;40.42;18.45;;;;;;;0.44;nan;102414.00;5057170;28;20037;-67
2022/03/22 02:46:48;;;;;;;43.80;20.20;;;;;;;0.59;nan;102441.41;5052201;28;20029;-68
2022/03/22 02:49:14;;;;;;;50.67;23.88;;;;;;;0.51;nan;102430.78;5059679;28;20066;-68
2022/03/22 02:51:40;;;;;;;69.78;29.55;;;;;;;0.51;nan;102435.13;5058338;28;20033;-67
2022/03/22 02:54:06;;;;;;;50.30;22.85;;;;;;;0.50;nan;102444.66;5054472;28;20028;-68
2022/03/22 02:56:32;;;;;;;48.92;22.13;;;;;;;0.36;nan;102431.84;5059628;28;20033;-68
2022/03/22 02:58:58;;;;;;;48.88;22.35;;;;;;;0.28;nan;102416.84;5064676;28;20079;-69
2022/03/22 03:01:24;;;;;;;51.60;22.80;;;;;;;0.34;nan;102433.72;5062007;28;20487;-67
2022/03/22 03:03:49;;;;;;;39.97;19.85;;;;;;;0.37;nan;102442.09;5061281;28;20037;-70
2022/03/22 03:06:15;;;;;;;39.10;18.70;;;;;;;0.27;nan;102430.75;5065523;28;20079;-68
2022/03/22 03:08:41;;;;;;;41.63;19.38;;;;;;;0.28;nan;102441.91;5066906;28;20044;-68
2022/03/22 03:11:08;;;;;;;40.25;18.40;;;;;;;0.23;nan;102437.06;5056932;28;20707;-67
2022/03/22 03:16:17;;;;;;;42.35;18.45;;;;;;;0.19;nan;102446.81;5063776;28;20032;-68
2022/03/22 03:18:42;;;;;;;41.40;19.15;;;;;;;0.12;nan;102443.00;5053953;28;20029;-68
2022/03/22 03:21:08;;;;;;;37.45;18.00;;;;;;;0.07;nan;102444.22;5064710;28;20123;-68
2022/03/22 03:23:34;;;;;;;40.45;18.70;;;;;;;0.01;nan;102442.06;5065372;28;20047;-67
2022/03/22 03:25:59;;;;;;;37.88;18.45;;;;;;;-0.13;nan;102432.66;5061619;28;20032;-67
2022/03/22 03:28:24;;;;;;;38.22;18.50;;;;;;;-0.11;nan;102435.97;5063092;28;20120;-69
2022/03/22 03:30:50;;;;;;;44.53;18.90;;;;;;;-0.41;nan;102398.25;5056995;28;20487;-67
2022/03/22 03:33:16;;;;;;;39.47;18.88;;;;;;;-0.23;nan;102435.88;5065162;28;20039;-68
2022/03/22 03:35:41;;;;;;;39.45;18.27;;;;;;;-0.39;nan;102435.22;5058798;28;20033;-68
2022/03/22 03:38:07;;;;;;;42.83;19.88;;;;;;;-0.47;nan;102440.94;5048656;28;20083;-69
2022/03/22 03:43:16;;;;;;;42.00;20.85;;;;;;;-0.68;nan;102427.66;5056003;28;20059;-68
2022/03/22 03:48:25;;;;;;;47.92;21.73;;;;;;;-0.65;nan;102437.81;5064595;28;20028;-68
2022/03/22 03:50:51;;;;;;;46.92;20.38;;;;;;;-0.66;nan;102435.31;5067379;28;20371;-68
2022/03/22 03:53:16;;;;;;;41.00;19.55;;;;;;;-0.68;nan;102427.66;5056413;28;20123;-67
2022/03/22 03:55:42;;;;;;;45.33;19.92;;;;;;;-0.63;nan;102434.28;5069227;28;20039;-70
2022/03/22 03:58:07;;;;;;;41.65;20.20;;;;;;;-0.63;nan;102436.88;5061641;28;20402;-67
2022/03/22 04:00:32;;;;;;;45.92;20.33;;;;;;;-0.61;nan;102435.00;5061297;28;20060;-69
2022/03/22 04:02:58;;;;;;;41.60;20.02;;;;;;;-0.74;nan;102422.88;5064414;28;20397;-68
2022/03/22 04:05:23;;;;;;;44.90;21.25;;;;;;;-0.67;nan;102439.66;5063953;28;20433;-70
2022/03/22 04:07:49;;;;;;;40.72;20.08;;;;;;;-0.72;nan;102433.13;5054749;28;20037;-67
2022/03/22 04:10:14;;;;;;;46.00;20.70;;;;;;;-0.70;nan;102447.59;5061743;28;20033;-69
2022/03/22 04:12:44;;;;;;;46.53;20.75;;;;;;;-0.73;nan;102444.41;5052454;28;20029;-68
2022/03/22 04:15:10;;;;;;;47.00;20.92;;;;;;;-0.77;nan;102433.41;5064606;28;20406;-68
2022/03/22 04:17:36;;;;;;;46.33;20.77;;;;;;;-0.71;nan;102453.72;5069003;28;20036;-68
2022/03/22 04:20:01;;;;;;;48.28;21.15;;;;;;;-1.00;nan;102400.50;5061120;28;20388;-67
2022/03/22 04:22:27;;;;;;;50.97;22.45;;;;;;;-0.71;nan;102447.72;5054892;28;20041;-66
2022/03/22 04:24:52;;;;;;;46.67;21.23;;;;;;;-0.75;nan;102446.25;5064055;28;20036;-67
2022/03/22 04:32:46;;;;;;;45.80;20.23;;;;;;;-0.91;nan;102456.75;5060385;28;20092;-69
2022/03/22 04:35:18;;;;;;;49.17;21.02;;;;;;;-0.84;nan;102459.78;5053735;28;20377;-69
2022/03/22 04:37:47;;;;;;;49.88;21.48;;;;;;;-0.90;nan;102471.38;5050250;28;20406;-68
2022/03/22 04:40:14;;;;;;;45.17;21.92;;;;;;;-0.91;nan;102461.94;5053127;28;20029;-68
2022/03/22 04:42:40;;;;;;;47.47;21.70;;;;;;;-0.94;nan;102452.63;5061770;28;20036;-68
2022/03/22 04:45:06;;;;;;;47.20;21.67;;;;;;;-0.90;nan;102464.44;5057549;28;20033;-69
2022/03/22 04:47:33;;;;;;;48.47;20.98;;;;;;;-0.91;nan;102461.94;5051651;28;20036;-67
2022/03/22 04:49:59;;;;;;;55.30;21.20;;;;;;;-0.93;nan;102466.41;5063151;28;20128;-68
2022/03/22 04:57:53;;;;;;;42.53;20.50;;;;;;;-1.08;nan;102463.88;5056699;28;20115;-67
2022/03/22 05:00:19;;;;;;;47.47;20.33;;;;;;;-1.15;nan;102454.00;5072536;28;20068;-67
2022/03/22 05:02:45;;;;;;;46.47;20.90;;;;;;;-1.22;nan;102451.00;5066284;28;20036;-68
2022/03/22 05:05:10;;;;;;;48.55;21.45;;;;;;;-1.31;nan;102436.06;5067539;28;20100;-67
2022/03/22 05:07:36;;;;;;;46.65;22.23;;;;;;;-1.13;nan;102471.06;5072497;28;20024;-69
2022/03/22 05:10:02;;;;;;;50.67;23.70;;;;;;;-1.18;nan;102469.69;5065809;28;20025;-67
2022/03/22 05:12:27;;;;;;;50.95;23.58;;;;;;;-1.21;nan;102460.38;5061223;28;20039;-67
2022/03/22 05:14:53;;;;;;;48.13;23.17;;;;;;;-1.13;nan;102471.06;5067870;28;20111;-72
2022/03/22 05:17:21;;;;;;;50.55;22.63;;;;;;;-1.07;nan;102473.28;5069040;28;20037;-72
2022/03/22 05:19:49;;;;;;;42.72;22.05;;;;;;;-1.10;nan;102457.97;5055106;28;20159;-71
2022/03/22 05:22:15;;;;;;;42.53;21.38;;;;;;;-1.00;nan;102462.56;5063778;28;20037;-71
2022/03/22 05:24:41;;;;;;;51.92;22.00;;;;;;;-1.04;nan;102456.72;5072762;28;20091;-70
2022/03/22 05:27:06;;;;;;;51.42;22.50;;;;;;;-1.00;nan;102462.56;5069972;28;20064;-72
2022/03/22 05:29:32;;;;;;;45.33;21.48;;;;;;;-0.92;nan;102465.47;5054503;28;20124;-71
2022/03/22 05:31:57;;;;;;;57.67;23.30;;;;;;;-0.90;nan;102469.59;5062909;28;20368;-72
2022/03/22 05:34:23;;;;;;;53.25;22.92;;;;;;;-0.84;nan;102458.03;5060874;28;20055;-71
2022/03/22 05:36:48;;;;;;;53.35;22.88;;;;;;;-0.75;nan;102461.78;5066606;28;20028;-71
2022/03/22 05:39:14;;;;;;;47.95;21.85;;;;;;;-0.69;nan;102472.56;5068414;28;20367;-71
2022/03/22 05:41:39;;;;;;;48.45;22.85;;;;;;;-0.73;nan;102457.34;5070451;28;20056;-71
2022/03/22 05:44:05;;;;;;;59.13;24.27;;;;;;;-0.62;nan;102464.38;5054166;28;20043;-72
2022/03/22 05:46:31;;;;;;;52.97;23.83;;;;;;;-0.55;nan;102466.50;5068584;28;20044;-72
2022/03/22 05:48:57;;;;;;;48.88;24.58;;;;;;;-0.44;nan;102478.72;5062547;28;20048;-71
2022/03/22 05:51:23;;;;;;;61.28;26.13;;;;;;;-0.41;nan;102470.75;5068848;28;20062;-73
2022/03/22 05:53:48;;;;;;;60.85;26.55;;;;;;;-0.36;nan;102471.28;5063595;28;20036;-71
2022/03/22 05:56:14;;;;;;;56.58;24.95;;;;;;;-0.26;nan;102482.69;5071986;28;20044;-72
2022/03/22 05:58:40;;;;;;;60.20;25.58;;;;;;;-0.18;nan;102481.34;5067341;28;20600;-72
2022/03/22 06:01:06;;;;;;;72.68;26.13;;;;;;;-0.18;nan;102460.63;5052710;28;20578;-72
2022/03/22 06:03:33;;;;;;;60.78;26.63;;;;;;;-0.04;nan;102474.28;5055849;28;20083;-73
2022/03/22 06:05:58;;;;;;;62.88;26.52;;;;;;;-0.04;nan;102458.75;5051663;28;20063;-72
2022/03/22 06:08:24;;;;;;;56.42;26.20;;;;;;;0.13;nan;102470.53;5061307;28;20033;-74
2022/03/22 06:10:49;;;;;;;61.97;25.80;;;;;;;0.18;nan;102475.41;5053557;28;20029;-74
2022/03/22 06:13:15;;;;;;;60.50;25.13;;;;;;;0.27;nan;102479.16;5057993;28;20052;-73
2022/03/22 06:15:41;;;;;;;53.35;25.13;;;;;;;0.27;nan;102461.84;5051345;28;20387;-72
2022/03/22 06:18:11;;;;;;;58.30;24.30;;;;;;;0.41;nan;102468.66;5069454;28;20128;-70
2022/03/22 06:20:37;;;;;;;;;;;;;;;0.67;nan;102489.31;5066842;28;20033;-71
2022/03/22 06:23:05;;;;;;;52.95;23.63;;;;;;;0.76;nan;102488.66;5050411;28;20363;-70
2022/03/22 06:25:30;;;;;;;59.42;25.65;;;;;;;0.82;nan;102475.28;5067123;28;20048;-71
2022/03/22 06:27:56;;;;;;;61.05;26.65;;;;;;;0.89;nan;102463.50;5054481;28;20387;-71
2022/03/22 06:30:23;;;;;;;58.15;26.35;;;;;;;1.11;nan;102474.94;5065302;28;20470;-70
2022/03/22 06:32:55;;;;;;;61.45;26.80;;;;;;;1.28;nan;102484.91;5064979;28;20488;-67
2022/03/22 06:35:41;;;;;;;61.35;26.95;;;;;;;1.42;nan;102483.91;5065280;28;20101;-69
2022/03/22 06:38:07;;;;;;;62.58;26.77;;;;;;;1.63;nan;102492.69;5058383;28;20048;-68
2022/03/22 06:40:39;;;;;;;61.30;26.85;;;;;;;1.62;nan;102469.41;5054545;28;20032;-69
2022/03/22 06:43:15;;;;;;;61.03;26.58;;;;;;;1.96;nan;102482.47;5054277;28;20037;-69
2022/03/22 06:45:40;;;;;;;65.70;27.58;;;;;;;2.02;nan;102479.41;5065689;28;20441;-69
2022/03/22 06:48:07;;;;;;;59.50;25.48;;;;;;;2.16;nan;102483.56;5068655;28;20041;-68
2022/03/22 06:50:33;;;;;;;56.35;24.73;;;;;;;2.27;nan;102484.34;5056160;28;20123;-68
2022/03/22 06:52:59;;;;;;;51.78;22.55;;;;;;;2.32;nan;102477.06;5050203;28;20035;-69
2022/03/22 06:55:25;;;;;;;48.10;22.85;;;;;;;2.30;nan;102450.34;5052210;28;20032;-69
2022/03/22 06:57:54;;;;;;;45.13;22.08;;;;;;;2.68;nan;102476.84;5057396;28;20064;-69
2022/03/22 07:00:23;;;;;;;48.03;21.55;;;;;;;2.87;nan;102484.03;5049130;28;20402;-67
2022/03/22 07:02:49;;;;;;;45.85;21.75;;;;;;;2.92;nan;102468.88;5047567;28;20056;-68
2022/03/22 07:05:16;;;;;;;113.50;47.53;;;;;;;3.16;nan;102489.47;5054927;28;20025;-69
2022/03/22 07:07:42;;;;;;;75.68;32.47;;;;;;;3.44;nan;102477.66;5045176;28;20040;-69
2022/03/22 07:10:11;;;;;;;52.53;24.73;;;;;;;3.61;nan;102477.06;5048634;28;20036;-69
2022/03/22 07:13:01;;;;;;;49.53;22.42;;;;;;;3.78;nan;102485.25;5044246;28;20044;-70
2022/03/22 07:15:26;;;;;;;;;;;;;;;4.01;nan;102480.72;5050236;28;20029;-69
2022/03/22 07:17:55;;;;;;;63.20;28.75;;;;;;;;;;5046859;28;20007;-69
2022/03/22 07:20:20;;;;;;;52.30;24.02;;;;;;;;;;5046795;28;20501;-70
2022/03/22 07:22:46;;;;;;;46.92;22.38;;;;;;;;;;5046997;28;20037;-70
2022/03/22 07:25:12;;;;;;;48.60;22.88;;;;;;;;;;5045627;28;20094;-70
2022/03/22 07:27:37;;;;;;;47.42;21.95;;;;;;;;;;5048324;28;20029;-71
2022/03/22 07:30:03;;;;;;;51.75;22.33;;;;;;;;;;5049476;28;20037;-69
2022/03/22 07:32:28;;;;;;;46.92;21.73;;;;;;;4.58;nan;102457.59;5043831;28;20033;-69
2022/03/22 07:34:54;;;;;;;48.38;23.48;;;;;;;4.66;nan;102461.16;5046422;28;20043;-73
2022/03/22 07:37:19;;;;;;;52.58;23.75;;;;;;;4.89;nan;102474.78;5043957;28;20119;-72
2022/03/22 07:39:46;;;;;;;45.50;21.88;;;;;;;4.94;nan;102466.56;5038170;28;20469;-72
2022/03/22 07:42:14;;;;;;;51.45;22.50;;;;;;;5.23;nan;102478.78;5038050;28;20048;-69
2022/03/22 07:44:45;;;;;;;44.30;21.75;;;;;;;5.39;nan;102486.91;5047387;28;20041;-69
2022/03/22 07:47:13;;;;;;;45.65;21.98;;;;;;;5.45;nan;102488.13;5047355;28;20442;-72
2022/03/22 07:55:10;;;;;;;53.25;23.10;;;;;;;5.83;nan;102461.06;5045731;28;20056;-71
2022/03/22 07:57:36;;;;;;;54.70;23.48;;;;;;;5.93;nan;102464.47;5048450;28;20036;-73
2022/03/22 08:00:10;;;;;;;54.50;22.00;;;;;;;6.23;nan;102475.69;5049331;28;20041;-69
2022/03/22 08:02:48;;;;;;;49.88;22.13;;;;;;;6.31;nan;102467.09;5043258;28;20041;-69
2022/03/22 08:05:14;;;;;;;54.90;20.83;;;;;;;6.37;nan;102453.44;5036435;28;20160;-72
2022/03/22 08:07:39;;;;;;;50.42;22.20;;;;;;;6.67;nan;102446.22;5031853;28;20024;-72
2022/03/22 08:10:08;;;;;;;39.15;20.38;;;;;;;7.00;nan;102463.88;5043541;28;20040;-70
2022/03/22 08:12:34;;;;;;;45.85;19.00;;;;;;;7.13;nan;102452.19;5048493;28;20036;-71
2022/03/22 08:14:59;;;;;;;45.58;20.58;;;;;;;7.37;nan;102451.56;5048956;28;20033;-71
2022/03/22 08:17:25;;;;;;;37.05;19.05;;;;;;;7.46;nan;102450.66;5048848;28;20037;-70
2022/03/22 08:19:50;;;;;;;37.17;18.00;;;;;;;7.58;nan;102451.22;5039159;28;20041;-71
2022/03/22 08:22:16;;;;;;;50.53;20.17;;;;;;;7.87;nan;102459.56;5039953;28;20025;-71
2022/03/22 08:24:41;;;;;;;35.58;17.85;;;;;;;7.88;nan;102435.00;5041342;28;20038;-71
2022/03/22 08:27:07;;;;;;;34.63;16.98;;;;;;;8.10;nan;102435.44;5037905;28;20033;-71
2022/03/22 08:29:34;;;;;;;33.85;16.98;;;;;;;8.26;nan;102434.66;5042990;28;20124;-70
2022/03/22 08:31:59;;;;;;;32.75;15.98;;;;;;;8.48;nan;102444.59;5051602;28;20033;-70
2022/03/22 08:34:31;;;;;;;29.40;15.02;;;;;;;8.57;nan;102436.72;5051250;28;20068;-69
2022/03/22 08:37:03;;;;;;;25.50;13.85;;;;;;;8.62;nan;102435.28;5041875;28;20503;-70
2022/03/22 08:39:28;;;;;;;27.75;14.98;;;;;;;8.84;nan;102427.75;5050218;28;20051;-70
2022/03/22 08:41:54;;;;;;;28.55;14.70;;;;;;;8.93;nan;102426.75;5055318;28;20061;-70
2022/03/22 08:44:20;;;;;;;29.88;14.40;;;;;;;9.12;nan;102422.97;5044975;28;20542;-70
2022/03/22 08:46:46;;;;;;;36.88;16.63;;;;;;;9.34;nan;102426.75;5053738;28;20155;-70
2022/03/22 08:49:12;;;;;;;33.72;16.42;;;;;;;9.51;nan;102417.84;5047425;28;20119;-71
2022/03/22 08:51:37;;;;;;;32.17;16.27;;;;;;;9.57;nan;102413.72;5043040;28;20051;-70
2022/03/22 08:54:06;;;;;;;27.98;15.18;;;;;;;9.74;nan;102423.19;5047400;28;20033;-70
2022/03/22 08:56:32;;;;;;;27.88;14.40;;;;;;;9.86;nan;102412.31;5053267;28;20419;-71
2022/03/22 08:58:58;;;;;;;35.63;16.50;;;;;;;9.97;nan;102414.56;5047233;28;20098;-71
2022/03/22 09:01:30;;;;;;;26.55;14.93;;;;;;;10.10;nan;102403.47;5034830;28;20052;-72
2022/03/22 09:06:42;;;;;;;26.33;14.35;;;;;;;10.34;nan;102411.31;5027688;28;20037;-72
2022/03/22 09:09:10;;;;;;;26.23;13.32;;;;;;;10.53;nan;102402.09;5016880;28;20037;-73
2022/03/22 09:11:38;;;;;;;29.35;13.43;;;;;;;10.65;nan;102407.78;5018056;28;20116;-71
2022/03/22 09:14:04;;;;;;;24.67;12.98;;;;;;;10.88;nan;102404.34;5006926;28;20045;-70
2022/03/22 09:16:32;;;;;;;22.52;12.45;;;;;;;10.84;nan;102385.41;5028554;28;20380;-71
2022/03/22 09:18:58;;;;;;;29.50;13.50;;;;;;;10.98;nan;102386.44;5017896;28;20033;-71
2022/03/22 09:21:28;;;;;;;24.27;12.38;;;;;;;11.15;nan;102382.66;5011043;28;20030;-69
2022/03/22 09:23:54;;;;;;;22.90;12.60;;;;;;;11.35;nan;102377.69;5029141;28;20450;-71
2022/03/22 09:26:19;;;;;;;24.67;12.25;;;;;;;11.41;nan;102376.94;5026211;28;20095;-70
2022/03/22 09:28:45;;;;;;;23.63;12.52;;;;;;;11.57;nan;102373.31;5025127;28;20030;-72
2022/03/22 09:31:10;;;;;;;26.20;13.43;;;;;;;11.87;nan;102376.75;5032528;28;20091;-69
2022/03/22 09:33:51;;;;;;;24.75;13.05;;;;;;;11.96;nan;102379.31;5013075;28;20450;-71
2022/03/22 09:36:18;;;;;;;22.83;12.95;;;;;;;12.09;nan;102371.53;5030501;28;20038;-71
2022/03/22 09:38:45;;;;;;;22.98;12.85;;;;;;;12.04;nan;102358.06;5029977;28;20029;-71
2022/03/22 09:41:13;;;;;;;21.08;12.13;;;;;;;12.23;nan;102364.56;5030099;28;20060;-74
2022/03/22 09:43:47;;;;;;;21.15;12.80;;;;;;;12.29;nan;102358.56;5023242;28;20068;-74
2022/03/22 09:46:18;;;;;;;28.13;11.52;;;;;;;12.55;nan;102350.06;5030452;28;20391;-73
2022/03/22 09:51:48;;;;;;;19.00;10.95;;;;;;;12.81;nan;102352.09;5030664;28;20029;-74
2022/03/22 09:54:25;;;;;;;21.52;11.43;;;;;;;12.88;nan;102347.69;5009114;28;20030;-74
2022/03/22 09:56:52;;;;;;;20.15;10.48;;;;;;;12.93;nan;102345.28;5010308;28;20119;-74
2022/03/22 09:59:38;;;;;;;21.35;11.45;;;;;;;13.10;nan;102342.34;5031216;28;20183;-72
2022/03/22 10:02:04;;;;;;;19.92;10.60;;;;;;;13.18;nan;102335.06;5040704;28;20136;-73
2022/03/22 10:04:40;;;;;;;21.60;10.82;;;;;;;13.32;nan;102306.88;5047162;28;20095;-75
2022/03/22 10:07:08;;;;;;;18.23;9.35;;;;;;;13.45;nan;102307.94;5044987;28;20094;-75
2022/03/22 10:09:36;;;;;;;18.17;9.48;;;;;;;13.65;nan;102334.50;5066757;28;20033;-72
2022/03/22 10:12:10;;;;;;;17.50;9.75;;;;;;;13.73;nan;102327.19;5045853;28;20507;-72
2022/03/22 10:14:45;;;;;;;13.55;8.40;;;;;;;13.79;nan;102323.78;5047018;28;20398;-72
2022/03/22 10:17:20;;;;;;;18.85;9.48;;;;;;;13.94;nan;102317.50;5043523;28;20044;-72
2022/03/22 10:19:49;;;;;;;20.67;9.70;;;;;;;14.09;nan;102310.19;5044220;28;20116;-73
2022/03/22 10:22:16;;;;;;;12.48;7.50;;;;;;;14.19;nan;102297.34;5049286;28;20082;-70
2022/03/22 10:24:42;;;;;;;12.38;7.53;;;;;;;14.28;nan;102294.53;5048796;28;20546;-70
2022/03/22 10:27:28;;;;;;;15.43;9.50;;;;;;;14.26;nan;102290.22;5049190;28;20099;-71
2022/03/22 10:29:56;;;;;;;18.05;9.05;;;;;;;14.33;nan;102292.06;5041816;28;20041;-71
2022/03/22 10:32:44;;;;;;;16.73;9.60;;;;;;;14.38;nan;102282.50;5038084;28;20046;-73
2022/03/22 10:35:16;;;;;;;14.05;7.85;;;;;;;14.50;nan;102293.28;5037546;28;20553;-73
2022/03/22 10:37:47;;;;;;;20.40;10.23;;;;;;;14.57;nan;102294.13;5048530;28;20076;-73
2022/03/22 10:40:40;;;;;;;20.40;9.30;;;;;;;14.71;nan;102283.53;5049137;28;20643;-74
2022/03/22 10:43:11;;;;;;;23.65;8.88;;;;;;;14.83;nan;102277.38;5039452;28;20546;-75
2022/03/22 10:45:48;;;;;;;15.90;8.50;;;;;;;14.72;nan;102275.34;5051156;28;20037;-73
2022/03/22 10:48:26;;;;;;;16.85;9.38;;;;;;;14.70;nan;102273.94;5049646;28;20064;-71
2022/03/22 10:50:58;;;;;;;18.98;8.93;;;;;;;14.80;nan;102271.69;5050241;28;20109;-70
2022/03/22 10:53:34;;;;;;;18.42;10.02;;;;;;;14.80;nan;102261.09;5049178;28;20073;-72
2022/03/22 10:56:02;;;;;;;23.83;10.48;;;;;;;14.75;nan;102245.78;5047882;28;20039;-73
2022/03/22 10:58:29;;;;;;;21.23;10.38;;;;;;;14.84;nan;102254.31;5030697;28;20090;-73
2022/03/22 11:00:56;;;;;;;18.70;10.07;;;;;;;14.97;nan;102249.00;5050012;28;20033;-73
2022/03/22 11:03:24;;;;;;;18.73;9.82;;;;;;;15.01;nan;102236.94;5027781;28;20049;-73
2022/03/22 11:05:52;;;;;;;17.45;9.75;;;;;;;15.00;nan;102240.63;5029821;28;20029;-73
2022/03/22 11:08:19;;;;;;;18.92;10.77;;;;;;;15.05;nan;102248.75;5026212;28;20061;-73
2022/03/22 11:10:45;;;;;;;19.98;11.60;;;;;;;15.01;nan;102242.25;5020883;28;20526;-70
2022/03/22 11:13:11;;;;;;;21.75;10.25;;;;;;;15.05;nan;102238.13;5036941;28;20096;-72
2022/03/22 11:15:42;;;;;;;20.60;10.27;;;;;;;15.07;nan;102224.69;5029682;28;20041;-75
2022/03/22 11:18:09;;;;;;;18.98;10.35;;;;;;;15.12;nan;102229.34;5023821;28;20036;-76
2022/03/22 11:20:34;;;;;;;17.77;10.52;;;;;;;15.10;nan;102222.41;5024763;28;20030;-75
2022/03/22 11:23:00;;;;;;;18.40;10.82;;;;;;;15.07;nan;102209.56;5018243;28;20036;-76
2022/03/22 11:25:35;;;;;;;21.40;9.88;;;;;;;15.21;nan;102220.13;5014073;28;20559;-75
2022/03/22 11:28:09;;;;;;;21.63;9.70;;;;;;;15.29;nan;102219.88;5017003;28;20033;-75
2022/03/22 11:30:37;;;;;;;18.50;10.38;;;;;;;15.31;nan;102210.69;5024701;28;20038;-76
2022/03/22 11:35:57;;;;;;;18.77;9.75;;;;;;;15.45;nan;102205.31;5028669;28;20041;-74
2022/03/22 11:38:45;;;;;;;17.85;8.75;;;;;;;15.53;nan;102195.25;5017063;28;20041;-72
2022/03/22 11:44:13;;;;;;;16.48;9.13;;;;;;;15.58;nan;102194.59;5020169;28;20037;-75
2022/03/22 11:46:39;;;;;;;15.98;8.00;;;;;;;15.62;nan;102189.69;5026104;28;20057;-76
2022/03/22 11:49:20;;;;;;;16.17;8.80;;;;;;;15.48;nan;102165.06;5026480;28;20038;-75
2022/03/22 11:52:12;;;;;;;14.88;7.60;;;;;;;15.68;nan;102184.34;5025243;28;20120;-76
2022/03/22 11:54:38;;;;;;;14.13;7.93;;;;;;;15.64;nan;102167.19;5027547;28;20509;-75
2022/03/22 11:57:05;;;;;;;14.70;8.18;;;;;;;15.69;nan;102169.22;5027310;28;20075;-72
2022/03/22 11:59:41;;;;;;;15.48;8.05;;;;;;;15.75;nan;102157.75;5029231;28;20047;-75
2022/03/22 12:02:15;;;;;;;14.90;8.45;;;;;;;15.77;nan;102157.53;5023001;28;20053;-75
2022/03/22 12:04:55;;;;;;;15.52;8.30;;;;;;;15.76;nan;102154.06;5036556;28;20531;-72
2022/03/22 12:07:37;;;;;;;14.93;8.10;;;;;;;15.91;nan;102154.53;5020771;28;20037;-72
2022/03/22 12:10:11;;;;;;;21.35;8.75;;;;;;;15.99;nan;102150.78;5020359;28;20053;-72
2022/03/22 12:12:37;;;;;;;16.73;8.45;;;;;;;16.03;nan;102154.66;5024491;28;20037;-72
2022/03/22 12:15:08;;;;;;;16.88;7.90;;;;;;;16.01;nan;102137.31;5017362;28;20041;-72
2022/03/22 12:17:35;;;;;;;16.92;8.45;;;;;;;16.08;nan;102141.53;5013521;28;20160;-73